Nebish, Minnesota
Current Conditions -  °F | °C
As of 4:54 PM on Sunday 28 Dec 2014 (Local Time) from KBJI Reporting Station
Clear Clear  
Wind Chill: -14°   Ceiling: Unl
Heat Index:   Visibility: 7mi
Dew Point: -6°   Wind: 8mph
Humidity: 76%   Direction: 310°NW
Pressure: 30.27"   Gusts: NA
Location:  47.7369°N, 94.9947°W
Report Text: KBJI 282254Z AUTO 31007KT 7SM CLR M18/M21 A3027 RMK AO2 T11761209
Loading
Personal Weather Stations






























Interactive Weather Map New forecast layout! Learn more

10-Day Weather Forecast

Advertisements
Track Severe Weather on mobile